createdAt,value
2022-08-14T00:02:16.720Z,13.80
2022-08-14T00:04:46.236Z,12.35
2022-08-14T00:07:15.042Z,9.30
2022-08-14T00:10:01.502Z,11.13
2022-08-14T00:12:39.491Z,13.18
2022-08-14T00:15:11.940Z,10.63
2022-08-14T00:17:47.526Z,12.45
2022-08-14T00:20:30.370Z,9.32
2022-08-14T00:23:08.528Z,15.18
2022-08-14T00:25:43.061Z,16.65
2022-08-14T00:28:15.075Z,10.40
2022-08-14T00:30:44.176Z,11.40
2022-08-14T00:33:15.186Z,13.07
2022-08-14T00:36:35.275Z,8.93
2022-08-14T00:38:34.765Z,10.25
2022-08-14T00:41:05.092Z,10.93
2022-08-14T00:43:33.577Z,9.50
2022-08-14T00:46:05.277Z,11.18
2022-08-14T00:48:38.437Z,8.48
2022-08-14T00:51:10.905Z,8.52
2022-08-14T00:53:42.913Z,9.50
2022-08-14T00:56:15.491Z,7.22
2022-08-14T00:58:45.472Z,9.75
2022-08-14T01:01:19.144Z,8.15
2022-08-14T01:03:52.662Z,9.77
2022-08-14T01:06:23.546Z,11.23
2022-08-14T01:08:59.155Z,6.85
2022-08-14T01:11:35.316Z,7.90
2022-08-14T01:14:18.228Z,8.82
2022-08-14T01:16:53.145Z,11.43
2022-08-14T01:19:41.616Z,9.40
2022-08-14T01:22:12.698Z,7.20
2022-08-14T01:24:43.587Z,8.52
2022-08-14T01:27:18.136Z,12.23
2022-08-14T01:30:00.638Z,7.47
2022-08-14T01:32:37.823Z,6.45
2022-08-14T01:35:17.635Z,8.25
2022-08-14T01:37:56.147Z,10.55
2022-08-14T01:40:25.572Z,11.02
2022-08-14T01:43:02.913Z,12.93
2022-08-14T01:45:31.533Z,8.35
2022-08-14T01:48:13.901Z,7.63
2022-08-14T01:50:44.073Z,10.63
2022-08-14T01:53:14.672Z,10.80
2022-08-14T01:55:42.839Z,9.35
2022-08-14T01:58:19.583Z,11.02
2022-08-14T02:00:54.382Z,7.20
2022-08-14T02:03:24.556Z,8.20
2022-08-14T02:06:03.581Z,5.57
2022-08-14T02:08:53.024Z,8.27
2022-08-14T02:11:24.628Z,10.48
2022-08-14T02:13:59.567Z,7.82
2022-08-14T02:16:39.125Z,7.80
2022-08-14T02:19:09.827Z,10.60
2022-08-14T02:21:43.576Z,7.38
2022-08-14T02:24:40.371Z,10.50
2022-08-14T02:28:24.384Z,7.20
2022-08-14T02:30:01.332Z,10.65
2022-08-14T02:32:37.009Z,11.70
2022-08-14T02:35:10.378Z,8.85
2022-08-14T02:37:48.469Z,11.63
2022-08-14T02:40:19.299Z,6.38
2022-08-14T02:42:54.060Z,8.32
2022-08-14T02:45:24.130Z,8.10
2022-08-14T02:47:53.761Z,6.75
2022-08-14T02:50:27.185Z,9.77
2022-08-14T02:52:57.762Z,8.02
2022-08-14T02:55:33.286Z,12.98
2022-08-14T02:58:03.343Z,10.75
2022-08-14T03:00:35.636Z,10.43
2022-08-14T03:03:08.778Z,9.27
2022-08-14T03:05:41.641Z,10.18
2022-08-14T03:08:15.375Z,6.63
2022-08-14T03:10:49.041Z,9.80
2022-08-14T03:13:20.874Z,8.75
2022-08-14T03:15:56.110Z,12.23
2022-08-14T03:18:31.197Z,6.97
2022-08-14T03:21:01.559Z,8.27
2022-08-14T03:23:34.124Z,8.15
2022-08-14T03:26:08.661Z,9.32
2022-08-14T03:28:42.336Z,6.57
2022-08-14T03:31:13.415Z,8.10
2022-08-14T03:33:43.078Z,11.98
2022-08-14T03:37:51.401Z,10.82
2022-08-14T03:39:13.173Z,11.60
2022-08-14T03:41:50.994Z,12.10
2022-08-14T03:45:27.701Z,11.20
2022-08-14T03:47:08.221Z,11.80
2022-08-14T03:49:42.139Z,10.60
2022-08-14T03:52:28.094Z,9.77
2022-08-14T03:55:00.365Z,9.80
2022-08-14T03:57:32.408Z,6.95
2022-08-14T04:00:04.099Z,14.35
2022-08-14T04:02:37.735Z,12.23
2022-08-14T04:05:16.468Z,11.73
2022-08-14T04:07:49.687Z,12.90
2022-08-14T04:10:33.347Z,8.90
2022-08-14T04:13:04.506Z,12.65
2022-08-14T04:15:56.643Z,8.75
2022-08-14T04:18:21.031Z,8.55
2022-08-14T04:20:51.619Z,10.07
2022-08-14T04:23:32.585Z,9.80
2022-08-14T04:26:03.164Z,6.25
2022-08-14T04:29:07.301Z,7.45
2022-08-14T04:31:25.033Z,9.32
2022-08-14T04:34:20.701Z,11.25
2022-08-14T04:37:10.642Z,9.07
2022-08-14T04:40:08.801Z,11.02
2022-08-14T04:42:55.046Z,9.13
2022-08-14T04:45:29.657Z,10.45
2022-08-14T04:48:13.770Z,9.98
2022-08-14T04:51:03.557Z,10.27
2022-08-14T04:53:35.578Z,7.40
2022-08-14T04:56:06.021Z,10.23
2022-08-14T04:58:57.900Z,12.75
2022-08-14T05:01:39.693Z,10.15
2022-08-14T05:04:08.754Z,13.40
2022-08-14T05:06:44.062Z,9.95
2022-08-14T05:09:14.165Z,8.20
2022-08-14T05:11:44.347Z,11.95
2022-08-14T05:14:16.691Z,8.20
2022-08-14T05:17:02.904Z,10.75
2022-08-14T05:19:32.090Z,8.70
2022-08-14T05:22:16.720Z,8.27
2022-08-14T05:24:49.678Z,9.30
2022-08-14T05:27:23.279Z,11.15
2022-08-14T05:29:53.522Z,12.27
2022-08-14T05:32:23.281Z,11.40
2022-08-14T05:34:58.499Z,12.57
2022-08-14T05:37:29.893Z,10.15
2022-08-14T05:39:59.321Z,11.57
2022-08-14T05:42:31.828Z,9.05
2022-08-14T05:45:02.295Z,12.32
2022-08-14T05:47:39.607Z,13.38
2022-08-14T05:50:17.556Z,11.93
2022-08-14T05:52:48.612Z,16.27
2022-08-14T05:55:22.085Z,13.43
2022-08-14T05:57:53.711Z,12.00
2022-08-14T06:00:24.953Z,12.68
2022-08-14T06:03:00.191Z,12.27
2022-08-14T06:05:29.609Z,9.43
2022-08-14T06:07:58.646Z,14.25
2022-08-14T06:10:27.977Z,15.05
2022-08-14T06:12:57.907Z,16.08
2022-08-14T06:15:29.929Z,13.15
2022-08-14T06:18:01.875Z,17.65
2022-08-14T06:20:31.399Z,13.55
2022-08-14T06:23:02.553Z,11.75
2022-08-14T06:25:32.178Z,13.05
2022-08-14T06:28:03.827Z,12.65
2022-08-14T06:30:45.966Z,10.68
2022-08-14T06:33:18.240Z,11.88
2022-08-14T06:35:47.450Z,15.32
2022-08-14T06:38:19.832Z,12.88
2022-08-14T06:40:50.916Z,14.88
2022-08-14T06:43:27.075Z,13.45
2022-08-14T06:45:57.217Z,12.13
2022-08-14T06:48:27.194Z,15.23
2022-08-14T06:50:57.963Z,12.95
2022-08-14T06:53:28.246Z,13.55
2022-08-14T06:56:02.088Z,15.23
2022-08-14T06:58:32.279Z,11.57
2022-08-14T07:01:26.922Z,17.58
2022-08-14T07:04:23.789Z,14.90
2022-08-14T07:06:55.488Z,17.00
2022-08-14T07:09:40.460Z,17.13
2022-08-14T07:12:53.058Z,12.07
2022-08-14T07:15:06.206Z,12.73
2022-08-14T07:17:36.334Z,12.40
2022-08-14T07:20:07.634Z,11.70
2022-08-14T07:22:55.969Z,17.08
2022-08-14T07:25:30.414Z,16.52
2022-08-14T07:28:01.357Z,19.40
2022-08-14T07:30:34.619Z,17.15
2022-08-14T07:33:03.598Z,13.52
2022-08-14T07:35:42.876Z,19.42
2022-08-14T07:38:19.908Z,15.90
2022-08-14T07:40:48.486Z,15.95
2022-08-14T07:43:23.763Z,12.07
2022-08-14T07:45:54.019Z,17.58
2022-08-14T07:48:25.464Z,19.95
2022-08-14T07:51:02.072Z,18.92
2022-08-14T07:53:34.205Z,15.82
2022-08-14T07:56:21.534Z,16.08
2022-08-14T07:58:58.419Z,13.20
2022-08-14T08:01:29.843Z,14.50
2022-08-14T08:04:01.168Z,14.52
2022-08-14T08:06:31.419Z,16.05
2022-08-14T08:09:03.221Z,15.35
2022-08-14T08:11:37.563Z,18.17
2022-08-14T08:14:10.533Z,16.50
2022-08-14T08:16:46.731Z,16.25
2022-08-14T08:19:18.896Z,17.95
2022-08-14T08:21:48.520Z,18.63
2022-08-14T08:24:19.864Z,16.83
2022-08-14T08:26:50.666Z,20.73
2022-08-14T08:29:28.465Z,15.95
2022-08-14T08:32:01.985Z,16.15
2022-08-14T08:34:46.059Z,17.20
2022-08-14T08:37:16.009Z,18.77
2022-08-14T08:40:02.266Z,21.30
2022-08-14T08:42:38.876Z,15.18
2022-08-14T08:45:11.998Z,16.13
2022-08-14T08:47:41.588Z,16.77
2022-08-14T08:50:22.987Z,18.92
2022-08-14T08:52:55.553Z,16.30
2022-08-14T08:55:28.623Z,14.88
2022-08-14T08:57:58.951Z,14.98
2022-08-14T09:00:34.433Z,19.33
2022-08-14T09:03:12.255Z,17.60
2022-08-14T09:05:54.068Z,20.45
2022-08-14T09:08:31.391Z,16.45
2022-08-14T09:11:02.967Z,16.83
2022-08-14T09:13:49.077Z,18.10
2022-08-14T09:16:21.817Z,18.77
2022-08-14T09:18:53.451Z,12.10
2022-08-14T09:21:24.420Z,15.45
2022-08-14T09:24:26.138Z,16.63
2022-08-14T09:26:49.190Z,15.88
2022-08-14T09:29:22.713Z,17.55
2022-08-14T09:31:57.493Z,17.20
2022-08-14T09:34:57.992Z,15.75
2022-08-14T09:37:38.585Z,17.17
2022-08-14T09:40:20.933Z,13.63
2022-08-14T09:42:58.364Z,16.05
2022-08-14T09:45:39.736Z,19.90
2022-08-14T09:48:16.715Z,17.45
2022-08-14T09:50:50.857Z,19.98
2022-08-14T09:54:19.461Z,15.48
2022-08-14T09:56:31.170Z,16.27
2022-08-14T09:59:15.320Z,16.58
2022-08-14T10:01:46.255Z,17.70
2022-08-14T10:04:35.832Z,15.68
2022-08-14T10:07:06.249Z,16.77
2022-08-14T10:09:57.778Z,18.00
2022-08-14T10:12:52.927Z,13.65
2022-08-14T10:15:25.370Z,16.92
2022-08-14T10:18:09.646Z,16.42
2022-08-14T10:20:55.304Z,18.58
2022-08-14T10:23:26.015Z,17.35
2022-08-14T10:25:58.989Z,16.05
2022-08-14T10:29:17.519Z,17.58
2022-08-14T10:31:45.036Z,15.38
2022-08-14T10:34:19.924Z,16.85
2022-08-14T10:37:05.676Z,15.20
2022-08-14T10:40:02.035Z,19.48
2022-08-14T10:42:37.388Z,20.10
2022-08-14T10:45:21.534Z,16.60
2022-08-14T10:48:09.286Z,14.85
2022-08-14T10:50:45.886Z,17.48
2022-08-14T10:53:15.429Z,17.08
2022-08-14T10:55:45.784Z,20.75
2022-08-14T10:58:14.995Z,15.80
2022-08-14T11:00:57.498Z,20.33
2022-08-14T11:03:55.281Z,19.15
2022-08-14T11:06:20.136Z,17.10
2022-08-14T11:08:51.960Z,20.20
2022-08-14T11:11:23.066Z,14.85
2022-08-14T11:13:51.227Z,16.83
2022-08-14T11:16:21.302Z,19.38
2022-08-14T11:18:51.176Z,18.00
2022-08-14T11:21:22.968Z,17.67
2022-08-14T11:23:53.743Z,18.95
2022-08-14T11:26:24.540Z,20.15
2022-08-14T11:28:53.667Z,18.65
2022-08-14T11:31:24.675Z,20.52
2022-08-14T11:33:57.797Z,12.88
2022-08-14T11:36:57.190Z,18.20
2022-08-14T11:39:33.979Z,17.02
2022-08-14T11:42:55.472Z,15.23
2022-08-14T11:44:56.779Z,15.50
2022-08-14T11:47:35.282Z,14.73
2022-08-14T11:50:34.160Z,22.17
2022-08-14T11:53:07.114Z,14.98
2022-08-14T11:55:37.981Z,17.65
2022-08-14T11:58:08.787Z,16.73
2022-08-14T12:00:47.887Z,17.27
2022-08-14T12:03:27.114Z,17.02
2022-08-14T12:06:21.587Z,19.88
2022-08-14T12:08:59.925Z,16.80
2022-08-14T12:11:44.225Z,15.13
2022-08-14T12:14:30.950Z,14.63
2022-08-14T12:17:12.277Z,20.58
2022-08-14T12:19:53.940Z,18.38
2022-08-14T12:22:35.353Z,22.08
2022-08-14T12:25:10.671Z,15.50
2022-08-14T12:27:46.909Z,16.05
2022-08-14T12:30:35.954Z,19.20
2022-08-14T12:33:24.027Z,20.58
2022-08-14T12:35:57.754Z,16.40
2022-08-14T12:38:35.979Z,17.02
2022-08-14T12:41:10.361Z,16.30
2022-08-14T12:43:48.079Z,18.20
2022-08-14T12:46:27.243Z,19.02
2022-08-14T12:48:58.472Z,15.68
2022-08-14T12:51:30.827Z,19.10
2022-08-14T12:54:00.744Z,16.42
2022-08-14T12:56:33.751Z,18.92
2022-08-14T12:59:03.343Z,18.65
2022-08-14T13:02:00.126Z,16.52
2022-08-14T13:04:22.840Z,18.80
2022-08-14T13:06:53.892Z,24.58
2022-08-14T13:09:28.012Z,18.35
2022-08-14T13:12:31.934Z,14.98
2022-08-14T13:14:57.821Z,17.23
2022-08-14T13:17:27.006Z,18.33
2022-08-14T13:19:59.016Z,16.23
2022-08-14T13:22:42.639Z,19.65
2022-08-14T13:25:15.831Z,20.50
2022-08-14T13:27:46.820Z,19.63
2022-08-14T13:30:23.667Z,15.43
2022-08-14T13:32:53.928Z,23.48
2022-08-14T13:35:23.324Z,15.98
2022-08-14T13:37:53.528Z,15.07
2022-08-14T13:40:26.362Z,19.10
2022-08-14T13:42:57.304Z,18.48
2022-08-14T13:45:33.840Z,16.73
2022-08-14T13:48:19.139Z,16.70
2022-08-14T13:51:01.963Z,16.67
2022-08-14T13:53:38.221Z,17.23
2022-08-14T13:56:14.784Z,16.40
2022-08-14T13:59:00.049Z,16.42
2022-08-14T14:01:29.679Z,19.17
2022-08-14T14:03:59.801Z,18.50
2022-08-14T14:06:32.008Z,18.15
2022-08-14T14:09:03.416Z,13.98
2022-08-14T14:11:31.530Z,15.45
2022-08-14T14:14:00.624Z,15.80
2022-08-14T14:16:30.449Z,14.30
2022-08-14T14:19:06.767Z,14.73
2022-08-14T14:21:40.745Z,17.02
2022-08-14T14:24:15.366Z,15.63
2022-08-14T14:26:46.813Z,16.63
2022-08-14T14:29:16.784Z,12.32
2022-08-14T14:31:48.427Z,11.73
2022-08-14T14:34:29.386Z,14.00
2022-08-14T14:37:02.822Z,12.73
2022-08-14T14:39:35.266Z,13.43
2022-08-14T14:42:09.268Z,17.05
2022-08-14T14:44:42.968Z,14.63
2022-08-14T14:47:11.837Z,13.70
2022-08-14T14:49:51.078Z,12.02
2022-08-14T14:52:27.144Z,14.80
2022-08-14T14:54:58.841Z,12.85
2022-08-14T14:57:34.748Z,13.55
2022-08-14T15:00:06.907Z,14.77
2022-08-14T15:02:38.482Z,14.95
2022-08-14T15:05:08.105Z,15.77
2022-08-14T15:07:36.750Z,14.25
2022-08-14T15:10:27.054Z,16.25
2022-08-14T15:13:00.422Z,21.42
2022-08-14T15:15:32.775Z,17.48
2022-08-14T15:18:01.621Z,18.45
2022-08-14T15:20:31.456Z,17.17
2022-08-14T15:23:08.243Z,19.15
2022-08-14T15:25:43.742Z,19.42
2022-08-14T15:28:21.746Z,16.33
2022-08-14T15:30:58.970Z,17.90
2022-08-14T15:34:13.509Z,14.43
2022-08-14T15:36:35.241Z,16.60
2022-08-14T15:39:03.419Z,18.35
2022-08-14T15:41:41.498Z,15.85
2022-08-14T15:44:24.606Z,18.83
2022-08-14T15:46:55.175Z,16.23
2022-08-14T15:49:24.334Z,15.48
2022-08-14T15:51:58.819Z,13.43
2022-08-14T15:54:31.148Z,16.40
2022-08-14T15:57:02.908Z,15.52
2022-08-14T15:59:53.853Z,13.57
2022-08-14T16:02:24.549Z,17.13
2022-08-14T16:04:55.953Z,20.35
2022-08-14T16:07:26.937Z,18.38
2022-08-14T16:10:18.346Z,13.90
2022-08-14T16:12:47.737Z,16.02
2022-08-14T16:15:17.925Z,20.27
2022-08-14T16:17:47.299Z,18.63
2022-08-14T16:20:42.545Z,15.07
2022-08-14T16:23:11.557Z,23.58
2022-08-14T16:25:41.586Z,18.77
2022-08-14T16:28:27.021Z,15.45
2022-08-14T16:30:56.045Z,18.40
2022-08-14T16:33:56.796Z,21.45
2022-08-14T16:36:30.122Z,26.73
2022-08-14T16:39:00.624Z,27.58
2022-08-14T16:41:29.948Z,28.15
2022-08-14T16:44:02.494Z,25.58
2022-08-14T16:46:35.294Z,30.08
2022-08-14T16:49:05.590Z,26.40
2022-08-14T16:51:36.525Z,30.60
2022-08-14T16:54:20.866Z,28.73
2022-08-14T16:57:13.916Z,24.42
2022-08-14T16:59:52.709Z,27.17
2022-08-14T17:02:35.446Z,24.60
2022-08-14T17:05:21.030Z,23.92
2022-08-14T17:08:32.613Z,28.73
2022-08-14T17:11:09.897Z,23.02
2022-08-14T17:13:59.854Z,23.80
2022-08-14T17:16:37.066Z,26.90
2022-08-14T17:19:13.918Z,23.17
2022-08-14T17:21:47.019Z,22.90
2022-08-14T17:24:56.205Z,21.52
2022-08-14T17:27:07.941Z,21.63
2022-08-14T17:29:44.493Z,27.00
2022-08-14T17:32:30.005Z,23.52
2022-08-14T17:35:16.438Z,21.00
2022-08-14T17:37:55.842Z,28.55
2022-08-14T17:40:31.220Z,25.27
2022-08-14T17:43:02.135Z,22.92
2022-08-14T17:45:46.993Z,20.63
2022-08-14T17:49:15.130Z,26.63
2022-08-14T17:51:23.618Z,20.17
2022-08-14T17:54:02.535Z,23.60
2022-08-14T17:56:33.158Z,26.77
2022-08-14T17:59:06.874Z,19.13
2022-08-14T18:01:40.798Z,21.25
2022-08-14T18:04:28.781Z,19.98
2022-08-14T18:07:09.935Z,26.88
2022-08-14T18:09:56.495Z,19.75
2022-08-14T18:12:31.880Z,19.70
2022-08-14T18:15:05.515Z,22.58
2022-08-14T18:17:50.765Z,20.70
2022-08-14T18:21:41.649Z,27.65
2022-08-14T18:23:14.264Z,22.15
2022-08-14T18:25:48.488Z,21.38
2022-08-14T18:28:47.888Z,25.10
2022-08-14T18:31:43.438Z,29.52
2022-08-14T18:34:32.177Z,23.30
2022-08-14T18:37:17.642Z,25.15
2022-08-14T18:40:01.459Z,25.48
2022-08-14T18:42:44.691Z,26.33
2022-08-14T18:45:28.537Z,27.17
2022-08-14T18:48:33.393Z,25.23
2022-08-14T18:51:15.026Z,27.83
2022-08-14T18:53:59.519Z,23.73
2022-08-14T18:56:58.953Z,29.45
2022-08-14T18:59:35.634Z,27.40
2022-08-14T19:02:42.543Z,23.60
2022-08-14T19:05:11.635Z,22.73
2022-08-14T19:07:41.078Z,21.48
2022-08-14T19:10:16.613Z,24.48
2022-08-14T19:13:11.934Z,22.40
2022-08-14T19:15:43.933Z,24.08
2022-08-14T19:18:26.246Z,25.13
2022-08-14T19:20:58.341Z,14.93
2022-08-14T19:23:44.405Z,17.63
2022-08-14T19:26:36.596Z,13.82
2022-08-14T19:29:36.250Z,13.95
2022-08-14T19:32:27.872Z,18.05
2022-08-14T19:35:00.021Z,13.50
2022-08-14T19:37:47.372Z,9.88
2022-08-14T19:40:31.686Z,12.60
2022-08-14T19:43:06.605Z,13.13
2022-08-14T19:45:35.579Z,13.68
2022-08-14T19:48:11.442Z,13.07
2022-08-14T19:50:40.898Z,14.50
2022-08-14T19:53:17.327Z,15.30
2022-08-14T19:55:58.631Z,13.13
2022-08-14T19:58:54.859Z,13.20
2022-08-14T20:01:36.424Z,14.38
2022-08-14T20:04:08.479Z,15.85
2022-08-14T20:06:57.002Z,11.60
2022-08-14T20:11:04.790Z,16.33
2022-08-14T20:12:34.533Z,13.30
2022-08-14T20:15:18.086Z,15.80
2022-08-14T20:17:52.876Z,13.52
2022-08-14T20:20:30.858Z,17.70
2022-08-14T20:23:03.098Z,12.25
2022-08-14T20:25:45.231Z,14.45
2022-08-14T20:28:30.684Z,16.52
2022-08-14T20:31:15.897Z,14.25
2022-08-14T20:34:06.126Z,14.35
2022-08-14T20:36:39.058Z,11.85
2022-08-14T20:39:15.376Z,14.23
2022-08-14T20:41:48.950Z,22.38
2022-08-14T20:44:40.401Z,15.55
2022-08-14T20:47:16.346Z,14.52
2022-08-14T20:49:45.103Z,18.40
2022-08-14T20:52:20.013Z,13.93
2022-08-14T20:54:51.532Z,15.50
2022-08-14T20:57:20.776Z,16.05
2022-08-14T20:59:53.658Z,15.73
2022-08-14T21:02:46.419Z,15.48
2022-08-14T21:05:22.422Z,15.10
2022-08-14T21:07:52.372Z,16.52
2022-08-14T21:10:35.653Z,21.23
2022-08-14T21:13:26.044Z,20.63
2022-08-14T21:15:57.936Z,26.55
2022-08-14T21:18:29.604Z,21.65
2022-08-14T21:20:58.983Z,19.73
2022-08-14T21:23:32.918Z,18.75
2022-08-14T21:26:01.650Z,18.17
2022-08-14T21:28:35.150Z,20.60
2022-08-14T21:31:05.552Z,22.67
2022-08-14T21:33:37.074Z,23.73
2022-08-14T21:36:08.354Z,28.60
2022-08-14T21:38:42.471Z,20.05
2022-08-14T21:41:42.710Z,21.10
2022-08-14T21:44:17.910Z,20.48
2022-08-14T21:46:50.240Z,17.60
2022-08-14T21:49:23.467Z,19.73
2022-08-14T21:51:57.109Z,20.77
2022-08-14T21:54:31.852Z,23.65
2022-08-14T21:57:17.509Z,22.73
2022-08-14T21:59:45.621Z,19.73
2022-08-14T22:02:32.225Z,17.52
2022-08-14T22:05:03.538Z,19.85
2022-08-14T22:07:32.359Z,21.45
2022-08-14T22:10:05.043Z,21.90
2022-08-14T22:12:58.630Z,21.65
2022-08-14T22:15:23.687Z,19.80
2022-08-14T22:17:54.851Z,23.85
2022-08-14T22:20:28.605Z,21.52
2022-08-14T22:22:58.963Z,21.67
2022-08-14T22:25:33.551Z,18.85
2022-08-14T22:28:04.325Z,22.60
2022-08-14T22:30:33.042Z,22.73
2022-08-14T22:33:01.171Z,24.02
2022-08-14T22:35:30.971Z,26.55
2022-08-14T22:38:34.914Z,27.00
2022-08-14T22:41:18.147Z,23.00
2022-08-14T22:43:38.862Z,27.33
2022-08-14T22:46:14.827Z,24.92
2022-08-14T22:48:45.392Z,23.02
2022-08-14T22:51:17.642Z,23.70
2022-08-14T22:53:48.420Z,24.58
2022-08-14T22:56:20.133Z,25.27
2022-08-14T22:58:53.597Z,28.25
2022-08-14T23:01:56.293Z,26.45
2022-08-14T23:04:35.711Z,26.95
2022-08-14T23:07:21.915Z,25.15
2022-08-14T23:09:56.740Z,28.77
2022-08-14T23:12:31.610Z,32.53
2022-08-14T23:15:01.055Z,27.20
2022-08-14T23:17:39.475Z,30.08
2022-08-14T23:20:18.499Z,28.77
2022-08-14T23:22:52.339Z,30.50
2022-08-14T23:25:57.592Z,28.95
2022-08-14T23:28:33.940Z,35.03
2022-08-14T23:31:08.388Z,29.05
2022-08-14T23:33:45.716Z,28.60
2022-08-14T23:36:31.410Z,28.27
2022-08-14T23:39:10.513Z,25.25
2022-08-14T23:41:52.992Z,24.90
2022-08-14T23:44:23.751Z,26.88
2022-08-14T23:46:56.859Z,29.02
2022-08-14T23:49:56.652Z,38.00
2022-08-14T23:52:50.941Z,31.88
2022-08-14T23:55:11.343Z,32.25
2022-08-14T23:57:44.212Z,30.67
